Time;durP1;ratioP1;P1;durP2;ratioP2;P2;SDS_P1;SDS_P2;PMS_P1;PMS_P2;Temp;Humidity;BMP_temperature;BMP_pressure;BME280_temperature;BME280_humidity;BME280_pressure;Samples;Min_cycle;Max_cycle;Signal;HPM_P1;HPM_P2
2022/08/20 00:01:05;;;;;;;3.47;3.07;;;23.60;99.90;;;;;;6135335;23;20419;-85
2022/08/20 00:03:37;;;;;;;4.53;3.17;;;23.60;99.90;;;;;;6110516;23;20444;-84
2022/08/20 00:06:09;;;;;;;2.93;2.67;;;23.50;99.90;;;;;;6134274;23;20970;-83
2022/08/20 00:08:37;;;;;;;2.83;2.63;;;23.50;99.90;;;;;;6108937;23;20552;-85
2022/08/20 00:11:06;;;;;;;2.83;2.37;;;23.50;99.90;;;;;;6111159;23;20442;-81
2022/08/20 00:13:42;;;;;;;4.07;3.70;;;23.50;99.90;;;;;;6139429;23;20411;-81
2022/08/20 00:16:09;;;;;;;3.87;3.20;;;23.50;99.90;;;;;;6116835;23;20455;-82
2022/08/20 00:18:37;;;;;;;3.93;3.60;;;23.50;99.90;;;;;;6140224;23;20483;-80
2022/08/20 00:21:10;;;;;;;4.13;3.73;;;23.50;99.90;;;;;;6115474;23;20411;-83
2022/08/20 00:23:49;;;;;;;3.67;2.93;;;23.30;99.90;;;;;;6118765;23;20399;-82
2022/08/20 00:26:17;;;;;;;5.63;3.83;;;23.30;99.90;;;;;;6117175;23;20420;-84
2022/08/20 00:28:45;;;;;;;3.50;3.20;;;23.30;99.90;;;;;;6144597;23;20450;-84
2022/08/20 00:31:16;;;;;;;3.13;2.87;;;23.20;99.90;;;;;;6143185;23;20875;-84
2022/08/20 00:33:44;;;;;;;5.37;3.20;;;23.20;99.90;;;;;;6120911;23;20431;-81
2022/08/20 00:36:11;;;;;;;3.90;3.60;;;23.20;99.90;;;;;;6152976;23;20439;-83
2022/08/20 00:38:41;;;;;;;4.37;3.37;;;23.10;99.90;;;;;;6126641;23;20442;-86
2022/08/20 00:41:11;;;;;;;4.00;3.60;;;23.00;99.90;;;;;;6124422;23;20416;-82
2022/08/20 00:44:03;;;;;;;4.00;3.60;;;23.00;99.90;;;;;;6117963;23;20419;-82
2022/08/20 00:46:30;;;;;;;3.80;3.50;;;23.00;99.90;;;;;;6114043;23;20418;-85
2022/08/20 00:48:59;;;;;;;2.83;2.63;;;23.00;99.90;;;;;;6112653;23;20440;-83
2022/08/20 00:51:37;;;;;;;8.07;5.20;;;23.00;99.90;;;;;;6135704;23;20403;-84
2022/08/20 00:54:25;;;;;;;4.70;3.70;;;23.00;99.90;;;;;;6111183;23;20990;-82
2022/08/20 00:56:57;;;;;;;4.40;4.00;;;22.90;99.90;;;;;;6109450;23;20448;-82
2022/08/20 00:59:30;;;;;;;3.87;3.00;;;22.80;99.90;;;;;;6108739;23;20719;-85
2022/08/20 01:02:00;;;;;;;4.10;3.40;;;22.80;99.90;;;;;;6107878;23;20436;-83
2022/08/20 01:04:32;;;;;;;4.03;3.50;;;22.80;99.90;;;;;;6085971;23;20436;-83
2022/08/20 01:07:04;;;;;;;3.50;3.20;;;22.70;99.90;;;;;;6113646;23;20423;-83
2022/08/20 01:09:34;;;;;;;3.27;2.97;;;22.80;99.90;;;;;;6114508;23;20618;-81
2022/08/20 01:12:17;;;;;;;3.40;2.90;;;22.90;99.90;;;;;;6141595;23;20427;-83
2022/08/20 01:14:45;;;;;;;4.67;3.23;;;22.90;99.90;;;;;;6138404;23;20499;-81
2022/08/20 01:17:16;;;;;;;3.60;3.30;;;22.80;99.90;;;;;;6135964;23;20428;-83
2022/08/20 01:19:51;;;;;;;4.93;2.90;;;22.80;99.90;;;;;;6134886;23;20475;-82
2022/08/20 01:25:37;;;;;;;3.60;3.30;;;22.80;99.90;;;;;;6131861;23;20442;-84
2022/08/20 01:28:05;;;;;;;3.27;2.90;;;22.70;99.90;;;;;;6131273;23;20470;-82
2022/08/20 01:30:36;;;;;;;4.10;3.00;;;22.70;99.90;;;;;;6131890;23;20400;-83
2022/08/20 01:33:04;;;;;;;3.40;3.10;;;22.70;99.90;;;;;;6132364;23;20940;-83
2022/08/20 01:35:39;;;;;;;3.40;3.10;;;22.70;99.90;;;;;;6109907;23;20444;-83
2022/08/20 01:38:08;;;;;;;3.80;3.43;;;22.60;99.90;;;;;;6086456;23;20443;-83
2022/08/20 01:41:13;;;;;;;3.97;3.63;;;22.60;99.90;;;;;;6110682;23;20495;-83
2022/08/20 01:43:41;;;;;;;3.47;3.17;;;22.60;99.90;;;;;;6128172;23;20423;-88
2022/08/20 01:46:10;;;;;;;3.27;2.77;;;22.60;99.90;;;;;;6127551;23;20415;-84
2022/08/20 01:48:38;;;;;;;3.30;3.00;;;22.50;99.90;;;;;;6106065;23;20438;-82
2022/08/20 01:51:07;;;;;;;3.00;2.80;;;22.50;99.90;;;;;;6105979;23;20783;-82
2022/08/20 01:53:42;;;;;;;4.63;2.50;;;22.40;99.90;;;;;;6130387;23;20446;-84
2022/08/20 01:56:13;;;;;;;2.47;2.27;;;22.40;99.90;;;;;;6106166;23;20427;-81
2022/08/20 01:58:45;;;;;;;5.30;2.77;;;22.40;99.90;;;;;;6104955;23;21180;-81
2022/08/20 02:01:26;;;;;;;3.03;2.73;;;22.40;99.90;;;;;;6105334;23;20447;-83
2022/08/20 02:03:54;;;;;;;3.20;2.90;;;22.40;99.90;;;;;;6106443;23;20422;-82
2022/08/20 02:06:24;;;;;;;3.00;2.33;;;22.40;99.90;;;;;;6130880;23;20490;-82
2022/08/20 02:08:54;;;;;;;2.53;2.00;;;22.40;99.90;;;;;;6132377;23;20443;-81
2022/08/20 02:11:22;;;;;;;2.97;2.43;;;22.30;99.90;;;;;;6106932;23;20408;-83
2022/08/20 02:13:51;;;;;;;2.57;2.37;;;22.30;99.90;;;;;;6112221;23;20478;-82
2022/08/20 02:16:20;;;;;;;3.03;2.83;;;22.30;99.90;;;;;;6132804;23;20428;-83
2022/08/20 02:18:53;;;;;;;2.77;2.40;;;22.30;99.90;;;;;;6134057;23;20431;-84
2022/08/20 02:21:21;;;;;;;2.20;2.00;;;22.30;99.90;;;;;;6132419;23;20491;-83
2022/08/20 02:23:48;;;;;;;2.30;2.10;;;22.30;99.90;;;;;;6132651;23;20888;-83
2022/08/20 02:26:17;;;;;;;3.90;2.23;;;22.30;99.90;;;;;;6106337;23;20507;-83
2022/08/20 02:28:50;;;;;;;2.67;2.13;;;22.20;99.90;;;;;;6106420;23;20518;-85
2022/08/20 02:31:21;;;;;;;2.57;2.37;;;22.20;99.90;;;;;;6110569;23;20553;-83
2022/08/20 02:33:48;;;;;;;3.70;2.57;;;22.20;99.90;;;;;;6105197;23;20419;-85
2022/08/20 02:36:37;;;;;;;4.10;2.70;;;22.20;99.90;;;;;;6109468;23;20431;-83
2022/08/20 02:39:09;;;;;;;3.23;2.87;;;22.20;99.90;;;;;;6105553;23;20424;-83
2022/08/20 02:41:37;;;;;;;2.77;2.57;;;22.30;99.90;;;;;;6127876;23;20431;-81
2022/08/20 02:44:05;;;;;;;3.27;2.97;;;22.30;99.90;;;;;;6105377;23;20412;-81
2022/08/20 02:46:44;;;;;;;3.20;2.87;;;22.30;99.90;;;;;;6140751;23;20416;-83
2022/08/20 02:49:10;;;;;;;4.50;3.20;;;22.30;99.90;;;;;;6106177;23;20638;-83
2022/08/20 02:51:37;;;;;;;3.30;3.00;;;22.20;99.90;;;;;;6133851;23;20408;-82
2022/08/20 02:54:04;;;;;;;4.27;3.57;;;22.20;99.90;;;;;;6118742;23;20396;-83
2022/08/20 02:56:31;;;;;;;3.50;3.17;;;22.20;99.90;;;;;;6143716;23;20435;-85
2022/08/20 02:58:58;;;;;;;3.63;3.40;;;22.10;99.90;;;;;;6119600;23;20479;-82
2022/08/20 03:01:27;;;;;;;3.40;2.90;;;22.20;99.90;;;;;;6120225;23;20439;-83
2022/08/20 03:03:57;;;;;;;3.17;2.87;;;22.20;99.90;;;;;;6145590;23;20462;-83
2022/08/20 03:06:28;;;;;;;4.27;3.10;;;22.20;99.90;;;;;;6119435;23;20515;-84
2022/08/20 03:09:00;;;;;;;4.20;3.20;;;22.20;99.90;;;;;;6120982;23;20455;-84
2022/08/20 03:11:26;;;;;;;3.30;3.00;;;22.20;99.90;;;;;;6118300;23;20400;-85
2022/08/20 03:13:54;;;;;;;3.50;3.10;;;22.20;99.90;;;;;;6143847;23;20423;-82
2022/08/20 03:16:22;;;;;;;3.27;3.07;;;22.20;99.90;;;;;;6116115;23;20485;-83
2022/08/20 03:18:49;;;;;;;3.40;3.03;;;22.20;99.90;;;;;;6118309;23;20749;-84
2022/08/20 03:21:17;;;;;;;3.43;3.13;;;22.20;99.90;;;;;;6144244;23;20408;-82
2022/08/20 03:23:44;;;;;;;2.90;2.70;;;22.30;99.90;;;;;;6153742;23;20452;-84
2022/08/20 03:26:13;;;;;;;2.93;2.73;;;22.30;99.90;;;;;;6127597;23;20420;-85
2022/08/20 03:28:41;;;;;;;2.60;2.40;;;22.30;99.90;;;;;;6116609;23;20566;-80
2022/08/20 03:31:08;;;;;;;2.37;2.23;;;22.20;99.90;;;;;;6134361;23;20412;-83
2022/08/20 03:33:38;;;;;;;2.43;2.23;;;22.20;99.90;;;;;;6113539;23;20419;-83
2022/08/20 03:36:06;;;;;;;2.40;2.20;;;22.20;99.90;;;;;;6113021;23;20436;-82
2022/08/20 03:38:33;;;;;;;3.60;2.27;;;22.10;99.90;;;;;;6138167;23;20483;-83
2022/08/20 03:41:02;;;;;;;1.90;1.80;;;22.20;99.90;;;;;;6109671;23;20412;-83
2022/08/20 03:43:29;;;;;;;3.97;1.90;;;22.20;99.90;;;;;;6107939;23;20419;-82
2022/08/20 03:45:56;;;;;;;2.53;2.33;;;22.30;99.90;;;;;;6134152;23;20551;-84
2022/08/20 03:48:25;;;;;;;2.50;2.30;;;22.60;99.90;;;;;;6108160;23;20457;-82
2022/08/20 03:50:53;;;;;;;2.53;2.23;;;22.80;99.90;;;;;;6106047;23;20814;-85
2022/08/20 03:53:20;;;;;;;2.50;2.30;;;22.70;99.90;;;;;;6130962;23;20436;-82
2022/08/20 03:55:48;;;;;;;2.70;2.40;;;22.60;99.90;;;;;;6106565;23;20419;-83
2022/08/20 03:58:19;;;;;;;3.03;2.83;;;22.40;99.90;;;;;;6106617;23;20475;-83
2022/08/20 04:00:49;;;;;;;2.93;2.73;;;22.30;99.90;;;;;;6131780;23;20448;-84
2022/08/20 04:03:16;;;;;;;2.40;2.20;;;22.20;99.90;;;;;;6105611;23;20910;-84
2022/08/20 04:05:44;;;;;;;3.27;2.40;;;22.20;99.90;;;;;;6107036;23;20428;-84
2022/08/20 04:08:20;;;;;;;2.57;2.37;;;22.20;99.90;;;;;;6108026;23;20431;-83
2022/08/20 04:10:49;;;;;;;3.33;3.03;;;22.10;99.90;;;;;;6134341;23;20462;-81
2022/08/20 04:13:18;;;;;;;5.00;3.30;;;22.10;99.90;;;;;;6133422;23;20418;-84
2022/08/20 04:15:45;;;;;;;4.93;3.10;;;22.10;99.90;;;;;;6113775;23;20432;-82
2022/08/20 04:18:14;;;;;;;3.37;3.07;;;22.10;99.90;;;;;;6105026;23;20446;-83
2022/08/20 04:20:42;;;;;;;3.87;3.13;;;22.10;99.90;;;;;;6131709;23;20483;-85
2022/08/20 04:23:09;;;;;;;7.40;5.43;;;22.00;99.90;;;;;;6104908;23;20440;-83
2022/08/20 04:25:39;;;;;;;4.00;3.70;;;22.10;99.90;;;;;;6105091;23;20511;-82
2022/08/20 04:28:14;;;;;;;4.33;3.93;;;22.10;99.90;;;;;;6105304;23;20408;-84
2022/08/20 04:30:41;;;;;;;5.30;4.80;;;22.00;99.90;;;;;;6108110;23;20383;-88
2022/08/20 04:33:09;;;;;;;4.67;4.20;;;22.00;99.90;;;;;;6135274;23;20466;-81
2022/08/20 04:35:36;;;;;;;4.23;3.83;;;21.90;99.90;;;;;;6105652;23;20531;-84
2022/08/20 04:38:08;;;;;;;4.20;3.90;;;21.80;99.90;;;;;;6105500;23;20439;-85
2022/08/20 04:43:22;;;;;;;5.17;4.43;;;21.70;99.90;;;;;;6131316;23;20424;-82
2022/08/20 04:45:50;;;;;;;5.43;4.70;;;21.70;99.90;;;;;;6131679;23;20442;-84
2022/08/20 04:48:18;;;;;;;4.83;4.07;;;21.80;99.90;;;;;;6104608;23;20411;-86
2022/08/20 04:50:46;;;;;;;5.50;5.00;;;21.80;99.90;;;;;;6105512;23;20727;-84
2022/08/20 04:53:16;;;;;;;4.60;4.17;;;21.80;99.90;;;;;;6105233;23;20422;-84
2022/08/20 04:55:47;;;;;;;4.53;4.20;;;21.90;99.90;;;;;;6107060;23;21025;-84
2022/08/20 04:58:29;;;;;;;4.17;3.77;;;22.00;99.90;;;;;;6109419;23;20406;-84
2022/08/20 05:00:58;;;;;;;3.90;3.43;;;22.10;99.90;;;;;;6104500;23;20522;-82
2022/08/20 05:03:27;;;;;;;3.90;3.50;;;22.00;99.90;;;;;;6130593;23;20530;-84
2022/08/20 05:05:55;;;;;;;4.57;4.17;;;22.10;99.90;;;;;;6143122;23;20523;-84
2022/08/20 05:08:28;;;;;;;4.77;4.03;;;22.10;99.90;;;;;;6139197;23;20420;-82
2022/08/20 05:10:56;;;;;;;4.43;3.70;;;21.90;99.90;;;;;;6115503;23;20400;-83
2022/08/20 05:13:32;;;;;;;4.50;3.70;;;21.90;99.90;;;;;;6108284;23;20420;-84
2022/08/20 05:16:01;;;;;;;5.53;5.03;;;22.00;99.90;;;;;;6105963;23;20439;-83
2022/08/20 05:18:31;;;;;;;4.77;4.27;;;21.90;99.90;;;;;;6106162;23;20425;-84
2022/08/20 05:21:04;;;;;;;8.13;7.33;;;22.00;99.90;;;;;;6130728;23;20507;-85
2022/08/20 05:23:39;;;;;;;7.27;6.57;;;21.80;99.90;;;;;;6131510;23;20416;-85
2022/08/20 05:26:07;;;;;;;8.13;7.33;;;21.60;99.90;;;;;;6130344;23;20514;-85
2022/08/20 05:28:37;;;;;;;9.73;8.83;;;21.60;99.90;;;;;;6129981;23;20447;-84
2022/08/20 05:31:08;;;;;;;7.90;7.10;;;21.60;99.90;;;;;;6130088;23;20435;-85
2022/08/20 05:33:37;;;;;;;10.87;9.60;;;21.60;99.90;;;;;;6105151;23;20407;-84
2022/08/20 05:36:05;;;;;;;11.40;10.30;;;21.50;99.90;;;;;;6105302;23;20455;-84
2022/08/20 05:38:35;;;;;;;10.93;9.73;;;21.50;99.90;;;;;;6105166;23;20850;-83
2022/08/20 05:41:04;;;;;;;10.93;9.83;;;21.50;99.90;;;;;;6104930;23;20494;-84
2022/08/20 05:43:32;;;;;;;11.53;9.90;;;21.40;99.90;;;;;;6131068;23;20451;-85
2022/08/20 05:46:00;;;;;;;14.50;9.50;;;21.40;99.90;;;;;;6103103;23;20463;-84
2022/08/20 05:48:34;;;;;;;11.80;10.17;;;21.50;99.90;;;;;;6129838;23;20915;-83
2022/08/20 05:51:01;;;;;;;12.30;11.10;;;21.50;99.90;;;;;;6104992;23;20914;-83
2022/08/20 05:53:29;;;;;;;13.50;10.50;;;21.50;99.90;;;;;;6131183;23;20432;-84
2022/08/20 05:55:57;;;;;;;10.97;10.00;;;21.50;99.90;;;;;;6129874;23;20552;-84
2022/08/20 05:58:28;;;;;;;10.60;9.50;;;21.50;99.90;;;;;;6105343;23;20411;-84
2022/08/20 06:00:55;;;;;;;12.90;10.53;;;21.50;99.90;;;;;;6132970;23;20450;-86
2022/08/20 06:06:08;;;;;;;12.13;9.40;;;21.50;99.90;;;;;;6131408;23;20462;-83
2022/08/20 06:08:40;;;;;;;11.57;10.47;;;21.50;99.90;;;;;;6107940;23;20430;-83
2022/08/20 06:11:07;;;;;;;11.83;10.60;;;21.40;99.90;;;;;;6118980;23;20447;-81
2022/08/20 06:13:34;;;;;;;11.80;10.70;;;21.40;99.90;;;;;;6151901;23;20653;-85
2022/08/20 06:16:01;;;;;;;12.13;10.83;;;21.30;99.90;;;;;;6125055;23;20440;-83
2022/08/20 06:18:28;;;;;;;14.40;11.20;;;21.30;99.90;;;;;;6116135;23;20422;-83
2022/08/20 06:20:55;;;;;;;12.30;11.10;;;21.30;99.90;;;;;;6109581;23;20439;-82
2022/08/20 06:23:24;;;;;;;14.17;10.90;;;21.30;99.90;;;;;;6110730;23;20420;-83
2022/08/20 06:25:54;;;;;;;11.53;10.33;;;21.20;99.90;;;;;;6113021;23;20428;-84
2022/08/20 06:28:21;;;;;;;11.80;10.60;;;21.20;99.90;;;;;;6140492;23;20415;-83
2022/08/20 06:30:48;;;;;;;11.80;10.70;;;21.20;99.90;;;;;;6109645;23;20467;-83
2022/08/20 06:33:15;;;;;;;12.37;11.07;;;21.20;99.90;;;;;;6134809;23;20498;-84
2022/08/20 06:35:43;;;;;;;12.53;10.20;;;21.20;99.90;;;;;;6109222;23;20499;-83
2022/08/20 06:38:11;;;;;;;12.70;10.90;;;21.20;99.90;;;;;;6133876;23;20486;-85
2022/08/20 06:40:41;;;;;;;12.50;11.30;;;21.20;99.90;;;;;;6106494;23;20435;-83
2022/08/20 06:43:08;;;;;;;12.90;11.53;;;21.20;99.90;;;;;;6133714;23;20912;-85
2022/08/20 06:45:37;;;;;;;13.33;11.27;;;21.20;99.90;;;;;;6136002;23;20789;-85
2022/08/20 06:48:10;;;;;;;11.33;9.93;;;21.20;99.90;;;;;;6113228;23;20418;-84
2022/08/20 06:50:45;;;;;;;12.30;10.40;;;21.20;99.90;;;;;;6137404;23;20762;-84
2022/08/20 06:53:15;;;;;;;14.00;11.30;;;21.30;99.90;;;;;;6132165;23;20916;-82
2022/08/20 06:55:47;;;;;;;12.83;11.40;;;21.30;99.90;;;;;;6133199;23;20463;-84
2022/08/20 06:58:14;;;;;;;12.13;10.93;;;21.30;99.90;;;;;;6132027;23;20786;-84
2022/08/20 07:00:48;;;;;;;11.37;10.17;;;21.40;99.90;;;;;;6109073;23;20419;-83
2022/08/20 07:03:16;;;;;;;14.00;11.60;;;21.40;99.90;;;;;;6137114;23;20422;-82
2022/08/20 07:05:44;;;;;;;13.33;9.90;;;21.40;99.90;;;;;;6139594;23;20435;-85
2022/08/20 07:08:15;;;;;;;12.13;10.47;;;21.40;99.90;;;;;;6134709;23;20486;-85
2022/08/20 07:10:42;;;;;;;9.57;8.60;;;21.50;99.90;;;;;;6109597;23;20443;-82
2022/08/20 07:13:10;;;;;;;10.57;9.60;;;21.50;99.90;;;;;;6111022;23;20439;-82
2022/08/20 07:15:38;;;;;;;11.27;9.80;;;21.50;99.90;;;;;;6105293;23;20436;-82
2022/08/20 07:18:06;;;;;;;11.87;10.67;;;21.40;99.90;;;;;;6103977;23;20422;-82
2022/08/20 07:20:35;;;;;;;10.23;9.13;;;21.30;99.90;;;;;;6104623;23;20458;-83
2022/08/20 07:23:08;;;;;;;12.00;9.53;;;21.30;99.90;;;;;;6128734;23;20415;-83
2022/08/20 07:25:40;;;;;;;10.70;9.27;;;21.30;99.90;;;;;;6129480;23;20459;-82
2022/08/20 07:28:17;;;;;;;12.13;10.33;;;21.70;99.90;;;;;;6129821;23;20458;-82
2022/08/20 07:33:44;;;;;;;9.77;8.87;;;25.00;97.30;;;;;;6130696;23;20780;-81
2022/08/20 07:36:14;;;;;;;10.87;9.03;;;26.30;94.30;;;;;;6130730;23;20439;-83
2022/08/20 07:38:49;;;;;;;9.70;8.80;;;26.80;92.30;;;;;;6105034;23;20408;-83
2022/08/20 07:41:20;;;;;;;9.40;8.40;;;26.60;91.20;;;;;;6104395;23;20447;-81
2022/08/20 07:43:49;;;;;;;10.77;9.70;;;26.60;91.30;;;;;;6106357;23;20451;-84
2022/08/20 07:46:22;;;;;;;11.30;8.33;;;26.90;90.60;;;;;;6108470;23;20432;-84
2022/08/20 07:49:00;;;;;;;8.50;7.50;;;28.10;88.70;;;;;;6108893;23;20411;-83
2022/08/20 07:51:30;;;;;;;7.93;7.23;;;29.50;81.80;;;;;;6110864;23;20414;-85
2022/08/20 07:53:58;;;;;;;8.60;7.33;;;30.80;75.70;;;;;;6107718;23;20404;-83
2022/08/20 07:56:30;;;;;;;9.80;6.60;;;31.40;70.90;;;;;;6131718;23;20435;-85
2022/08/20 07:59:02;;;;;;;6.60;6.10;;;31.60;67.60;;;;;;6106590;23;20732;-82
2022/08/20 08:01:31;;;;;;;6.80;6.20;;;31.30;65.70;;;;;;6108107;23;20400;-84
2022/08/20 08:03:59;;;;;;;6.17;5.67;;;30.10;69.00;;;;;;6133600;23;20415;-83
2022/08/20 08:06:31;;;;;;;7.50;6.80;;;29.90;70.40;;;;;;6112820;23;20424;-85
2022/08/20 08:09:12;;;;;;;6.60;5.90;;;29.90;70.40;;;;;;6115360;23;20391;-83
2022/08/20 08:11:45;;;;;;;6.70;6.10;;;29.70;71.40;;;;;;6114934;23;20400;-85
2022/08/20 08:14:17;;;;;;;6.40;5.73;;;30.40;69.30;;;;;;6115439;23;20466;-84
2022/08/20 08:16:45;;;;;;;7.07;6.50;;;30.30;67.30;;;;;;6119262;23;20397;-82
2022/08/20 08:19:15;;;;;;;7.00;6.40;;;29.40;69.70;;;;;;6127276;23;20412;-82
2022/08/20 08:21:43;;;;;;;6.77;6.10;;;29.50;70.90;;;;;;6126328;23;20403;-81
2022/08/20 08:24:22;;;;;;;6.83;6.23;;;30.40;68.70;;;;;;6103520;23;20407;-85
2022/08/20 08:26:59;;;;;;;6.47;5.97;;;30.10;66.70;;;;;;6128704;23;20470;-82
2022/08/20 08:29:29;;;;;;;6.90;6.30;;;28.50;70.70;;;;;;6127705;23;20427;-82
2022/08/20 08:32:00;;;;;;;8.50;7.73;;;27.00;77.60;;;;;;6127246;23;20423;-89
2022/08/20 08:34:27;;;;;;;11.17;10.27;;;25.90;84.10;;;;;;6127932;23;20384;-84
2022/08/20 08:36:57;;;;;;;8.80;7.90;;;25.10;89.10;;;;;;6126954;23;20404;-85
2022/08/20 08:39:24;;;;;;;9.40;8.60;;;24.60;91.20;;;;;;6127826;23;20377;-81
2022/08/20 08:41:51;;;;;;;9.57;8.63;;;24.00;92.70;;;;;;6127271;23;20411;-86
2022/08/20 08:44:37;;;;;;;9.27;8.37;;;23.70;93.90;;;;;;6127177;23;20471;-85
2022/08/20 08:47:17;;;;;;;8.63;8.00;;;23.50;94.50;;;;;;6151886;23;20396;-86
2022/08/20 08:49:46;;;;;;;10.03;7.97;;;23.30;94.80;;;;;;6125164;23;20438;-87
2022/08/20 08:52:26;;;;;;;10.43;8.33;;;23.20;95.30;;;;;;6143177;23;20444;-84
2022/08/20 08:54:57;;;;;;;9.10;8.17;;;23.00;95.70;;;;;;6111970;23;20512;-83
2022/08/20 08:57:24;;;;;;;10.23;8.93;;;22.90;96.00;;;;;;6136468;23;20411;-84
2022/08/20 09:00:00;;;;;;;9.33;7.97;;;22.70;96.10;;;;;;6150346;23;20491;-83
2022/08/20 09:02:31;;;;;;;8.90;8.10;;;22.60;96.30;;;;;;6152529;23;20404;-85
2022/08/20 09:05:12;;;;;;;9.80;8.90;;;22.80;96.60;;;;;;6152243;23;20438;-87
2022/08/20 09:07:39;;;;;;;8.17;7.37;;;22.70;96.70;;;;;;6125785;23;20388;-84
2022/08/20 09:10:07;;;;;;;9.30;8.50;;;22.70;96.80;;;;;;6117490;23;20436;-83
2022/08/20 09:12:34;;;;;;;9.00;7.50;;;22.70;96.60;;;;;;6136194;23;20408;-84
2022/08/20 09:15:04;;;;;;;13.70;10.60;;;22.70;96.50;;;;;;6133891;23;20457;-83
2022/08/20 09:17:32;;;;;;;8.27;7.47;;;22.80;96.40;;;;;;6110307;23;20373;-82
2022/08/20 09:19:59;;;;;;;9.40;8.00;;;23.00;96.20;;;;;;6133834;23;20538;-83
2022/08/20 09:22:26;;;;;;;9.10;8.20;;;23.00;95.90;;;;;;6107579;23;20419;-84
2022/08/20 09:24:53;;;;;;;9.50;8.60;;;22.90;96.20;;;;;;6132856;23;20435;-85
2022/08/20 09:27:20;;;;;;;8.03;7.33;;;22.80;96.40;;;;;;6132882;23;20418;-84
2022/08/20 09:29:47;;;;;;;7.87;7.20;;;22.80;96.70;;;;;;6107059;23;20522;-85
2022/08/20 09:32:21;;;;;;;8.00;7.20;;;22.80;96.70;;;;;;6132612;23;20412;-83
2022/08/20 09:34:55;;;;;;;8.27;7.47;;;22.90;96.50;;;;;;6108336;23;20712;-85
2022/08/20 09:37:24;;;;;;;9.33;8.20;;;23.10;96.30;;;;;;6104442;23;20433;-84
2022/08/20 09:39:52;;;;;;;15.40;10.40;;;23.20;95.70;;;;;;6107125;23;20403;-82
2022/08/20 09:42:22;;;;;;;13.00;10.83;;;23.20;95.40;;;;;;6106387;23;20454;-84
2022/08/20 09:44:53;;;;;;;10.63;9.40;;;23.10;95.50;;;;;;6106499;23;20435;-82
2022/08/20 09:47:21;;;;;;;12.73;9.50;;;23.00;96.00;;;;;;6131096;23;20396;-81
2022/08/20 09:49:49;;;;;;;10.53;9.10;;;22.80;96.30;;;;;;6133501;23;20420;-82
2022/08/20 09:52:24;;;;;;;10.47;8.30;;;22.90;96.40;;;;;;6112564;23;20414;-84
2022/08/20 09:54:56;;;;;;;9.80;8.43;;;23.00;96.30;;;;;;6133168;23;20423;-83
2022/08/20 09:57:24;;;;;;;11.57;10.47;;;22.90;96.20;;;;;;6134152;23;20408;-83
2022/08/20 09:59:59;;;;;;;11.73;9.87;;;22.90;96.50;;;;;;6134588;23;20412;-81
2022/08/20 10:02:27;;;;;;;13.07;10.10;;;22.80;96.70;;;;;;6133914;23;20398;-84
2022/08/20 10:04:55;;;;;;;11.27;10.23;;;22.80;97.00;;;;;;6107777;23;20451;-85
2022/08/20 10:07:23;;;;;;;10.30;8.87;;;22.80;96.80;;;;;;6107057;23;20403;-83
2022/08/20 10:09:50;;;;;;;14.20;10.30;;;22.80;96.80;;;;;;6133807;23;20388;-85
2022/08/20 10:12:17;;;;;;;12.00;10.80;;;22.80;96.80;;;;;;6134771;23;20411;-85
2022/08/20 10:14:44;;;;;;;10.13;9.10;;;22.70;96.90;;;;;;6107154;23;20439;-83
2022/08/20 10:17:11;;;;;;;8.90;8.00;;;22.70;97.00;;;;;;6107209;23;20411;-84
2022/08/20 10:19:40;;;;;;;10.80;7.80;;;22.70;96.60;;;;;;6133853;23;20439;-85
2022/08/20 10:22:10;;;;;;;8.57;7.67;;;22.70;96.20;;;;;;6133961;23;20399;-84
2022/08/20 10:24:37;;;;;;;7.50;6.53;;;22.80;96.10;;;;;;6134021;23;20439;-82
2022/08/20 10:27:07;;;;;;;12.47;6.80;;;22.80;96.00;;;;;;6106090;23;20419;-84
2022/08/20 10:29:35;;;;;;;8.43;7.63;;;22.80;95.80;;;;;;6107093;23;20411;-84
2022/08/20 10:32:14;;;;;;;9.30;7.30;;;22.80;95.70;;;;;;6133607;23;20488;-82
2022/08/20 10:34:44;;;;;;;10.10;7.80;;;23.00;95.40;;;;;;6132750;23;20502;-81
2022/08/20 10:37:20;;;;;;;9.37;7.00;;;23.00;95.20;;;;;;6107830;23;20487;-85
2022/08/20 10:39:48;;;;;;;7.50;6.80;;;23.10;95.10;;;;;;6106751;23;20434;-84
2022/08/20 10:42:15;;;;;;;8.40;7.27;;;23.20;95.20;;;;;;6115360;23;20443;-83
2022/08/20 10:44:43;;;;;;;8.60;7.77;;;23.20;95.20;;;;;;6113955;23;21205;-82
2022/08/20 10:47:28;;;;;;;9.30;7.53;;;23.20;95.30;;;;;;6118867;23;20422;-85
2022/08/20 10:50:56;;;;;;;8.87;7.93;;;23.20;95.40;;;;;;6141706;23;20404;-85
2022/08/20 10:53:23;;;;;;;11.00;7.50;;;23.20;95.40;;;;;;6126748;23;20775;-82
2022/08/20 10:56:23;;;;;;;9.80;7.30;;;23.50;95.10;;;;;;6143720;23;20515;-84
2022/08/20 10:58:50;;;;;;;9.30;7.97;;;23.70;94.80;;;;;;6115905;23;20400;-82
2022/08/20 11:01:16;;;;;;;8.97;8.07;;;23.80;94.20;;;;;;6146924;23;20423;-82
2022/08/20 11:03:59;;;;;;;8.10;6.50;;;23.70;94.60;;;;;;6123130;23;20422;-83
2022/08/20 11:07:19;;;;;;;8.77;6.53;;;23.60;94.60;;;;;;6120942;23;20432;-86
2022/08/20 11:10:18;;;;;;;7.93;6.83;;;23.60;94.50;;;;;;6065302;23;20420;-83
2022/08/20 11:12:50;;;;;;;8.93;6.80;;;23.70;94.60;;;;;;6113925;23;20388;-81
2022/08/20 11:15:25;;;;;;;8.73;7.30;;;23.90;94.10;;;;;;6111694;23;20990;-82
2022/08/20 11:18:15;;;;;;;8.40;6.13;;;24.10;93.30;;;;;;6114764;23;20400;-82
2022/08/20 11:20:43;;;;;;;8.30;6.23;;;24.00;93.20;;;;;;6120747;23;20443;-83
2022/08/20 11:23:10;;;;;;;8.80;6.60;;;23.90;93.60;;;;;;6107616;23;20470;-84
2022/08/20 11:25:41;;;;;;;8.50;5.30;;;23.90;93.50;;;;;;6132038;23;20750;-82
2022/08/20 11:28:08;;;;;;;6.23;5.60;;;24.30;92.80;;;;;;6112528;23;20438;-83
2022/08/20 11:30:37;;;;;;;7.17;4.00;;;24.90;91.20;;;;;;6106206;23;20446;-83
2022/08/20 11:33:07;;;;;;;6.10;4.80;;;25.30;89.80;;;;;;6105415;23;20412;-84
2022/08/20 11:35:36;;;;;;;5.43;4.93;;;25.80;87.20;;;;;;6104985;23;20442;-82
2022/08/20 11:38:20;;;;;;;4.53;4.00;;;25.70;87.30;;;;;;6131093;23;21072;-83
2022/08/20 11:40:47;;;;;;;4.43;4.00;;;25.50;87.80;;;;;;6131873;23;20415;-83
2022/08/20 11:43:14;;;;;;;5.40;4.57;;;25.20;87.20;;;;;;6107801;23;20412;-83
2022/08/20 11:45:49;;;;;;;7.20;4.90;;;25.10;87.70;;;;;;6115616;23;20424;-82
2022/08/20 11:48:16;;;;;;;6.80;4.80;;;25.10;89.00;;;;;;6152992;23;20372;-86
2022/08/20 11:50:44;;;;;;;7.40;5.53;;;25.30;88.10;;;;;;6127462;23;20443;-88
2022/08/20 11:53:11;;;;;;;7.53;5.37;;;25.30;88.40;;;;;;6139006;23;20400;-82
2022/08/20 11:55:39;;;;;;;6.63;5.40;;;25.40;88.90;;;;;;6108989;23;20486;-84
2022/08/20 11:58:06;;;;;;;6.33;5.70;;;25.70;88.10;;;;;;6107096;23;20645;-82
2022/08/20 12:00:35;;;;;;;7.43;5.47;;;25.50;87.00;;;;;;6132301;23;20412;-83
2022/08/20 12:03:04;;;;;;;7.07;6.20;;;25.40;88.80;;;;;;6107531;23;20411;-84
2022/08/20 12:05:36;;;;;;;11.43;6.10;;;25.20;89.80;;;;;;6111504;23;20499;-84
2022/08/20 12:08:03;;;;;;;6.33;5.27;;;25.40;89.50;;;;;;6135481;23;20487;-83
2022/08/20 12:10:36;;;;;;;9.60;5.97;;;25.80;87.60;;;;;;6108103;23;20428;-82
2022/08/20 12:13:04;;;;;;;8.33;6.83;;;26.20;84.40;;;;;;6085058;23;20444;-83
2022/08/20 12:15:37;;;;;;;8.23;6.00;;;26.00;83.40;;;;;;6112597;23;20451;-85
2022/08/20 12:18:10;;;;;;;7.73;6.10;;;26.10;83.80;;;;;;6135459;23;20403;-84
2022/08/20 12:20:38;;;;;;;7.70;7.00;;;26.40;82.60;;;;;;6108378;23;20519;-82
2022/08/20 12:23:05;;;;;;;11.00;6.90;;;26.60;80.70;;;;;;6135003;23;20479;-82
2022/08/20 12:25:40;;;;;;;7.83;6.97;;;26.90;80.20;;;;;;6134106;23;20432;-84
2022/08/20 12:28:13;;;;;;;8.53;7.70;;;27.70;76.40;;;;;;6111730;23;20423;-84
2022/08/20 12:30:46;;;;;;;8.00;7.27;;;27.30;76.20;;;;;;6138385;23;20492;-83
2022/08/20 12:33:16;;;;;;;8.80;8.00;;;26.70;77.70;;;;;;6114488;23;20433;-84
2022/08/20 12:35:44;;;;;;;8.27;7.47;;;26.40;77.80;;;;;;6107950;23;20995;-84
2022/08/20 12:38:11;;;;;;;8.03;7.27;;;26.10;79.80;;;;;;6133458;23;20412;-83
2022/08/20 12:40:38;;;;;;;7.63;6.80;;;26.00;80.40;;;;;;6105673;23;20915;-82
2022/08/20 12:43:07;;;;;;;8.13;7.43;;;25.90;79.90;;;;;;6130630;23;20423;-83
2022/08/20 12:45:38;;;;;;;8.13;7.30;;;25.90;80.30;;;;;;6130637;23;20439;-84
2022/08/20 12:48:09;;;;;;;10.10;8.57;;;25.90;80.20;;;;;;6106929;23;20376;-85
2022/08/20 12:50:40;;;;;;;11.63;8.40;;;25.90;80.10;;;;;;6105851;23;20404;-83
2022/08/20 12:53:08;;;;;;;8.87;7.87;;;25.80;80.50;;;;;;6131000;23;20771;-84
2022/08/20 12:55:35;;;;;;;8.60;7.80;;;25.50;82.00;;;;;;6129783;23;20431;-82
2022/08/20 12:58:03;;;;;;;11.13;8.33;;;25.80;82.70;;;;;;6105147;23;20471;-82
2022/08/20 13:00:45;;;;;;;8.40;7.50;;;26.10;82.20;;;;;;6106760;23;20935;-83
2022/08/20 13:03:18;;;;;;;7.57;6.83;;;26.30;79.40;;;;;;6106067;23;20400;-85
2022/08/20 13:05:52;;;;;;;8.50;7.47;;;26.40;79.20;;;;;;6107715;23;20424;-84
2022/08/20 13:08:22;;;;;;;7.30;6.40;;;26.50;78.00;;;;;;6130103;23;20431;-84
2022/08/20 13:10:48;;;;;;;8.53;6.90;;;26.50;77.90;;;;;;6106686;23;20499;-83
2022/08/20 13:13:18;;;;;;;7.57;6.47;;;26.80;77.70;;;;;;6105739;23;20408;-83